Duluth, Minnesota
Current Conditions -  °F | °C
As of 5:55 AM on Friday 28 Nov 2014 (Local Time) from KDLH Reporting Station
Light Snow Light Snow  
Wind Chill: -20°   Ceiling: 2300
Heat Index: -14°   Visibility: 4mi
Dew Point: -17°   Wind: 6mph
Humidity: 80%   Direction: 120°ESE
Pressure: 30.04"   Gusts: NA
Location:  46.79°N, 92.09°W
Report Text: KDLH 281155Z AUTO 12005KT 4SM -SN OVC023 M14/M17 A3004 RMK AO2 SLP212 P0000 60001 70001 T11391167 11139 21144 58029
Loading
Personal Weather Stations






























Interactive Weather Map New forecast layout! Learn more

10-Day Weather Forecast

Advertisements
Track Severe Weather on mobile